sensor_id;sensor_type;location;lat;lon;timestamp;pressure;altitude;pressure_sealevel;temperature;humidity
16544;BME280;8384;47.996;7.786;2022-11-20T00:03:35;98401.78;;;5.20;100.00
16544;BME280;8384;47.996;7.786;2022-11-20T00:06:06;98464.28;;;5.61;100.00
16544;BME280;8384;47.996;7.786;2022-11-20T00:08:32;98440.00;;;5.43;100.00
16544;BME280;8384;47.996;7.786;2022-11-20T00:11:02;98437.16;;;5.37;100.00
16544;BME280;8384;47.996;7.786;2022-11-20T00:13:28;98450.00;;;5.42;100.00
16544;BME280;8384;47.996;7.786;2022-11-20T00:15:58;98471.34;;;5.38;100.00
16544;BME280;8384;47.996;7.786;2022-11-20T00:18:23;98447.41;;;5.47;100.00
16544;BME280;8384;47.996;7.786;2022-11-20T00:20:48;98464.63;;;5.53;100.00
16544;BME280;8384;47.996;7.786;2022-11-20T00:23:14;98464.63;;;5.53;100.00
16544;BME280;8384;47.996;7.786;2022-11-20T00:25:39;98460.59;;;5.44;100.00
16544;BME280;8384;47.996;7.786;2022-11-20T00:28:04;98461.91;;;5.41;100.00
16544;BME280;8384;47.996;7.786;2022-11-20T00:30:30;98411.69;;;5.15;100.00
16544;BME280;8384;47.996;7.786;2022-11-20T00:32:56;98466.50;;;5.52;100.00
16544;BME280;8384;47.996;7.786;2022-11-20T00:35:21;98395.53;;;5.08;100.00
16544;BME280;8384;47.996;7.786;2022-11-20T00:37:47;98460.84;;;5.54;100.00
16544;BME280;8384;47.996;7.786;2022-11-20T00:40:12;98436.31;;;5.49;100.00
16544;BME280;8384;47.996;7.786;2022-11-20T00:42:37;98450.94;;;5.60;100.00
16544;BME280;8384;47.996;7.786;2022-11-20T00:45:03;98343.44;;;4.70;100.00
16544;BME280;8384;47.996;7.786;2022-11-20T00:47:28;98458.59;;;5.51;100.00
16544;BME280;8384;47.996;7.786;2022-11-20T00:49:54;98411.69;;;5.27;100.00
16544;BME280;8384;47.996;7.786;2022-11-20T00:52:19;98378.22;;;4.97;100.00
16544;BME280;8384;47.996;7.786;2022-11-20T00:54:44;98420.75;;;5.20;100.00
16544;BME280;8384;47.996;7.786;2022-11-20T00:57:09;98449.41;;;5.40;100.00
16544;BME280;8384;47.996;7.786;2022-11-20T00:59:35;98446.41;;;5.18;100.00
16544;BME280;8384;47.996;7.786;2022-11-20T01:02:00;98444.78;;;5.17;100.00
16544;BME280;8384;47.996;7.786;2022-11-20T01:04:25;98434.66;;;5.12;100.00
16544;BME280;8384;47.996;7.786;2022-11-20T01:06:50;98464.00;;;5.39;100.00
16544;BME280;8384;47.996;7.786;2022-11-20T01:09:16;98434.31;;;5.20;100.00
16544;BME280;8384;47.996;7.786;2022-11-20T01:11:43;98469.81;;;5.54;100.00
16544;BME280;8384;47.996;7.786;2022-11-20T01:14:14;98448.81;;;5.26;100.00
16544;BME280;8384;47.996;7.786;2022-11-20T01:16:43;98470.88;;;5.42;100.00
16544;BME280;8384;47.996;7.786;2022-11-20T01:19:13;98448.81;;;5.26;100.00
16544;BME280;8384;47.996;7.786;2022-11-20T01:21:41;98461.63;;;5.31;100.00
16544;BME280;8384;47.996;7.786;2022-11-20T01:24:10;98463.78;;;5.29;100.00
16544;BME280;8384;47.996;7.786;2022-11-20T01:26:37;98463.28;;;5.32;100.00
16544;BME280;8384;47.996;7.786;2022-11-20T01:29:03;98465.44;;;5.42;100.00
16544;BME280;8384;47.996;7.786;2022-11-20T01:31:32;98450.44;;;5.27;100.00
16544;BME280;8384;47.996;7.786;2022-11-20T01:34:00;98475.44;;;5.29;100.00
16544;BME280;8384;47.996;7.786;2022-11-20T01:36:27;98486.41;;;5.34;100.00
16544;BME280;8384;47.996;7.786;2022-11-20T01:38:56;98456.13;;;5.25;100.00
16544;BME280;8384;47.996;7.786;2022-11-20T01:41:23;98465.66;;;5.28;100.00
16544;BME280;8384;47.996;7.786;2022-11-20T01:44:11;98462.72;;;5.30;100.00
16544;BME280;8384;47.996;7.786;2022-11-20T01:46:39;98458.38;;;5.29;100.00
16544;BME280;8384;47.996;7.786;2022-11-20T01:49:10;98475.56;;;5.46;100.00
16544;BME280;8384;47.996;7.786;2022-11-20T01:51:50;98471.78;;;5.35;100.00
16544;BME280;8384;47.996;7.786;2022-11-20T01:54:23;98431.94;;;5.24;100.00
16544;BME280;8384;47.996;7.786;2022-11-20T01:56:51;98465.19;;;5.43;100.00
16544;BME280;8384;47.996;7.786;2022-11-20T01:59:19;98423.56;;;4.90;100.00
16544;BME280;8384;47.996;7.786;2022-11-20T02:01:46;98431.47;;;5.03;100.00
16544;BME280;8384;47.996;7.786;2022-11-20T02:04:13;98456.19;;;5.19;100.00
16544;BME280;8384;47.996;7.786;2022-11-20T02:06:43;98453.88;;;5.34;100.00
16544;BME280;8384;47.996;7.786;2022-11-20T02:09:09;98471.56;;;5.49;100.00
16544;BME280;8384;47.996;7.786;2022-11-20T02:11:34;98444.31;;;5.32;100.00
16544;BME280;8384;47.996;7.786;2022-11-20T02:14:00;98455.06;;;5.38;100.00
16544;BME280;8384;47.996;7.786;2022-11-20T02:16:28;98456.13;;;5.25;100.00
16544;BME280;8384;47.996;7.786;2022-11-20T02:18:55;98433.25;;;5.33;100.00
16544;BME280;8384;47.996;7.786;2022-11-20T02:24:18;98448.81;;;5.38;100.00
16544;BME280;8384;47.996;7.786;2022-11-20T02:26:52;98453.19;;;5.51;100.00
16544;BME280;8384;47.996;7.786;2022-11-20T02:29:39;98410.38;;;5.17;100.00
16544;BME280;8384;47.996;7.786;2022-11-20T02:32:06;98413.09;;;5.17;100.00
16544;BME280;8384;47.996;7.786;2022-11-20T02:34:31;98449.06;;;5.36;100.00
16544;BME280;8384;47.996;7.786;2022-11-20T02:36:57;98443.03;;;5.34;100.00
16544;BME280;8384;47.996;7.786;2022-11-20T02:39:25;98471.44;;;5.44;100.00
16544;BME280;8384;47.996;7.786;2022-11-20T02:41:53;98447.75;;;5.39;100.00
16544;BME280;8384;47.996;7.786;2022-11-20T02:44:19;98458.00;;;5.37;100.00
16544;BME280;8384;47.996;7.786;2022-11-20T02:46:45;98434.66;;;5.24;100.00
16544;BME280;8384;47.996;7.786;2022-11-20T02:49:10;98440.66;;;5.26;100.00
16544;BME280;8384;47.996;7.786;2022-11-20T02:51:36;98428.50;;;5.17;100.00
16544;BME280;8384;47.996;7.786;2022-11-20T02:54:01;98440.22;;;5.29;100.00
16544;BME280;8384;47.996;7.786;2022-11-20T02:56:26;98428.56;;;5.29;100.00
16544;BME280;8384;47.996;7.786;2022-11-20T02:58:52;98413.34;;;5.16;100.00
16544;BME280;8384;47.996;7.786;2022-11-20T03:01:17;98432.41;;;5.21;100.00
16544;BME280;8384;47.996;7.786;2022-11-20T03:03:42;98445.28;;;5.25;100.00
16544;BME280;8384;47.996;7.786;2022-11-20T03:06:08;98462.72;;;5.30;100.00
16544;BME280;8384;47.996;7.786;2022-11-20T03:08:33;98442.31;;;5.27;100.00
16544;BME280;8384;47.996;7.786;2022-11-20T03:11:03;98464.84;;;5.39;100.00
16544;BME280;8384;47.996;7.786;2022-11-20T03:13:29;98438.69;;;5.21;100.00
16544;BME280;8384;47.996;7.786;2022-11-20T03:15:54;98451.88;;;5.30;100.00
16544;BME280;8384;47.996;7.786;2022-11-20T03:18:19;98454.47;;;5.24;100.00
16544;BME280;8384;47.996;7.786;2022-11-20T03:20:45;98436.28;;;5.13;100.00
16544;BME280;8384;47.996;7.786;2022-11-20T03:23:10;98440.22;;;5.29;100.00
16544;BME280;8384;47.996;7.786;2022-11-20T03:25:35;98422.53;;;5.27;100.00
16544;BME280;8384;47.996;7.786;2022-11-20T03:28:00;98446.34;;;5.24;100.00
16544;BME280;8384;47.996;7.786;2022-11-20T03:30:26;98461.69;;;5.43;100.00
16544;BME280;8384;47.996;7.786;2022-11-20T03:32:53;98456.00;;;5.44;100.00
16544;BME280;8384;47.996;7.786;2022-11-20T03:35:18;98433.00;;;5.23;100.00
16544;BME280;8384;47.996;7.786;2022-11-20T03:37:44;98449.41;;;5.28;100.00
16544;BME280;8384;47.996;7.786;2022-11-20T03:40:11;98460.13;;;5.47;100.00
16544;BME280;8384;47.996;7.786;2022-11-20T03:42:36;98465.31;;;5.48;100.00
16544;BME280;8384;47.996;7.786;2022-11-20T03:45:15;98461.31;;;5.39;100.00
16544;BME280;8384;47.996;7.786;2022-11-20T03:47:41;98417.69;;;5.17;100.00
16544;BME280;8384;47.996;7.786;2022-11-20T03:50:07;98472.88;;;5.46;100.00
16544;BME280;8384;47.996;7.786;2022-11-20T03:52:33;98478.63;;;5.50;100.00
16544;BME280;8384;47.996;7.786;2022-11-20T03:54:58;98453.88;;;5.34;100.00
16544;BME280;8384;47.996;7.786;2022-11-20T03:57:24;98462.63;;;5.48;100.00
16544;BME280;8384;47.996;7.786;2022-11-20T03:59:49;98452.13;;;5.52;99.93
16544;BME280;8384;47.996;7.786;2022-11-20T04:02:14;98454.03;;;5.51;100.00
16544;BME280;8384;47.996;7.786;2022-11-20T04:04:39;98451.53;;;5.38;100.00
16544;BME280;8384;47.996;7.786;2022-11-20T04:07:05;98442.66;;;5.31;100.00
16544;BME280;8384;47.996;7.786;2022-11-20T04:09:30;98432.41;;;5.21;100.00
16544;BME280;8384;47.996;7.786;2022-11-20T04:11:55;98451.63;;;5.31;100.00
16544;BME280;8384;47.996;7.786;2022-11-20T04:14:21;98442.31;;;5.27;100.00
16544;BME280;8384;47.996;7.786;2022-11-20T04:16:46;98451.78;;;5.36;100.00
16544;BME280;8384;47.996;7.786;2022-11-20T04:19:14;98446.56;;;5.35;100.00
16544;BME280;8384;47.996;7.786;2022-11-20T04:21:40;98449.75;;;5.32;99.59
16544;BME280;8384;47.996;7.786;2022-11-20T04:24:06;98473.00;;;5.51;100.00
16544;BME280;8384;47.996;7.786;2022-11-20T04:26:32;98462.84;;;5.47;99.49
16544;BME280;8384;47.996;7.786;2022-11-20T04:28:58;98455.41;;;5.42;99.12
16544;BME280;8384;47.996;7.786;2022-11-20T04:31:32;98473.22;;;5.50;99.12
16544;BME280;8384;47.996;7.786;2022-11-20T04:34:03;98465.53;;;5.47;98.80
16544;BME280;8384;47.996;7.786;2022-11-20T04:36:29;98452.56;;;5.37;98.61
16544;BME280;8384;47.996;7.786;2022-11-20T04:38:56;98448.94;;;5.55;96.30
16544;BME280;8384;47.996;7.786;2022-11-20T04:41:25;98451.06;;;5.41;97.30
16544;BME280;8384;47.996;7.786;2022-11-20T04:43:53;98454.34;;;5.43;96.80
16544;BME280;8384;47.996;7.786;2022-11-20T04:46:20;98445.38;;;5.31;97.38
16544;BME280;8384;47.996;7.786;2022-11-20T04:48:46;98433.13;;;5.16;97.52
16544;BME280;8384;47.996;7.786;2022-11-20T04:51:12;98456.47;;;5.53;96.64
16544;BME280;8384;47.996;7.786;2022-11-20T04:53:37;98447.28;;;5.42;96.67
16544;BME280;8384;47.996;7.786;2022-11-20T04:56:06;98460.50;;;5.38;96.70
16544;BME280;8384;47.996;7.786;2022-11-20T04:58:32;98432.19;;;5.22;96.92
16544;BME280;8384;47.996;7.786;2022-11-20T05:01:18;98477.69;;;5.44;97.26
16544;BME280;8384;47.996;7.786;2022-11-20T05:03:44;98446.09;;;5.26;97.50
16544;BME280;8384;47.996;7.786;2022-11-20T05:06:12;98425.00;;;5.28;97.13
16544;BME280;8384;47.996;7.786;2022-11-20T05:08:38;98400.47;;;5.11;96.75
16544;BME280;8384;47.996;7.786;2022-11-20T05:11:06;98467.66;;;5.45;96.43
16544;BME280;8384;47.996;7.786;2022-11-20T05:13:31;98462.75;;;5.42;96.57
16544;BME280;8384;47.996;7.786;2022-11-20T05:16:08;98473.34;;;5.43;97.44
16544;BME280;8384;47.996;7.786;2022-11-20T05:18:34;98436.78;;;5.22;97.29
16544;BME280;8384;47.996;7.786;2022-11-20T05:21:00;98472.59;;;5.36;98.21
16544;BME280;8384;47.996;7.786;2022-11-20T05:23:27;98452.09;;;5.28;98.17
16544;BME280;8384;47.996;7.786;2022-11-20T05:25:53;98448.59;;;5.28;98.38
16544;BME280;8384;47.996;7.786;2022-11-20T05:28:19;98445.97;;;5.21;99.36
16544;BME280;8384;47.996;7.786;2022-11-20T05:30:44;98449.25;;;5.23;99.99
16544;BME280;8384;47.996;7.786;2022-11-20T05:33:10;98436.63;;;5.17;99.42
16544;BME280;8384;47.996;7.786;2022-11-20T05:35:35;98450.00;;;5.30;99.01
16544;BME280;8384;47.996;7.786;2022-11-20T05:38:00;98443.63;;;5.24;98.90
16544;BME280;8384;47.996;7.786;2022-11-20T05:40:26;98455.53;;;5.35;99.35
16544;BME280;8384;47.996;7.786;2022-11-20T05:42:51;98445.50;;;5.24;99.37
16544;BME280;8384;47.996;7.786;2022-11-20T05:45:16;98475.31;;;5.48;99.55
16544;BME280;8384;47.996;7.786;2022-11-20T05:47:41;98441.38;;;5.09;100.00
16544;BME280;8384;47.996;7.786;2022-11-20T05:50:07;98463.28;;;5.32;100.00
16544;BME280;8384;47.996;7.786;2022-11-20T05:52:32;98433.59;;;5.25;100.00
16544;BME280;8384;47.996;7.786;2022-11-20T05:54:57;98437.16;;;5.49;99.27
16544;BME280;8384;47.996;7.786;2022-11-20T05:57:23;98424.28;;;5.21;99.49
16544;BME280;8384;47.996;7.786;2022-11-20T05:59:48;98443.50;;;5.31;99.84
16544;BME280;8384;47.996;7.786;2022-11-20T06:02:13;98434.31;;;5.20;99.77
16544;BME280;8384;47.996;7.786;2022-11-20T06:04:39;98420.38;;;5.17;100.00
16544;BME280;8384;47.996;7.786;2022-11-20T06:07:05;98465.91;;;5.50;99.07
16544;BME280;8384;47.996;7.786;2022-11-20T06:09:30;98470.28;;;5.51;100.00
16544;BME280;8384;47.996;7.786;2022-11-20T06:11:56;98449.75;;;5.32;99.88
16544;BME280;8384;47.996;7.786;2022-11-20T06:14:21;98468.63;;;5.50;99.57
16544;BME280;8384;47.996;7.786;2022-11-20T06:16:46;98436.31;;;5.25;99.71
16544;BME280;8384;47.996;7.786;2022-11-20T06:19:12;98464.38;;;5.43;100.00
16544;BME280;8384;47.996;7.786;2022-11-20T06:21:37;98467.91;;;5.43;99.14
16544;BME280;8384;47.996;7.786;2022-11-20T06:24:03;98442.56;;;5.25;99.16
16544;BME280;8384;47.996;7.786;2022-11-20T06:26:28;98446.47;;;5.30;100.00
16544;BME280;8384;47.996;7.786;2022-11-20T06:28:54;98451.78;;;5.36;100.00
16544;BME280;8384;47.996;7.786;2022-11-20T06:31:22;98475.22;;;5.43;100.00
16544;BME280;8384;47.996;7.786;2022-11-20T06:33:49;98480.59;;;5.31;100.00
16544;BME280;8384;47.996;7.786;2022-11-20T06:36:16;98479.91;;;5.23;100.00
16544;BME280;8384;47.996;7.786;2022-11-20T06:38:42;98484.16;;;5.31;100.00
16544;BME280;8384;47.996;7.786;2022-11-20T06:41:14;98468.84;;;5.37;100.00
16544;BME280;8384;47.996;7.786;2022-11-20T06:43:40;98466.25;;;5.30;100.00
16544;BME280;8384;47.996;7.786;2022-11-20T06:46:06;98464.47;;;5.36;100.00
16544;BME280;8384;47.996;7.786;2022-11-20T06:48:31;98419.69;;;5.09;100.00
16544;BME280;8384;47.996;7.786;2022-11-20T06:50:57;98459.78;;;5.31;100.00
16544;BME280;8384;47.996;7.786;2022-11-20T06:53:23;98474.13;;;5.32;100.00
16544;BME280;8384;47.996;7.786;2022-11-20T06:55:49;98484.03;;;5.38;100.00
16544;BME280;8384;47.996;7.786;2022-11-20T06:58:15;98467.41;;;5.22;100.00
16544;BME280;8384;47.996;7.786;2022-11-20T07:00:41;98472.25;;;5.32;100.00
16544;BME280;8384;47.996;7.786;2022-11-20T07:03:08;98484.97;;;5.44;100.00
16544;BME280;8384;47.996;7.786;2022-11-20T07:05:34;98451.97;;;5.23;100.00
16544;BME280;8384;47.996;7.786;2022-11-20T07:08:00;98488.53;;;5.44;100.00
16544;BME280;8384;47.996;7.786;2022-11-20T07:10:25;98426.03;;;5.03;100.00
16544;BME280;8384;47.996;7.786;2022-11-20T07:12:52;98469.91;;;5.36;100.00
16544;BME280;8384;47.996;7.786;2022-11-20T07:15:18;98479.47;;;5.38;99.97
16544;BME280;8384;47.996;7.786;2022-11-20T07:17:44;98506.31;;;5.40;99.76
16544;BME280;8384;47.996;7.786;2022-11-20T07:20:10;98485.22;;;5.30;100.00
16544;BME280;8384;47.996;7.786;2022-11-20T07:22:36;98474.84;;;5.27;100.00
16544;BME280;8384;47.996;7.786;2022-11-20T07:25:02;98489.59;;;5.43;99.57
16544;BME280;8384;47.996;7.786;2022-11-20T07:27:29;98499.84;;;5.41;100.00
16544;BME280;8384;47.996;7.786;2022-11-20T07:29:54;98484.31;;;5.48;99.09
16544;BME280;8384;47.996;7.786;2022-11-20T07:32:19;98501.50;;;5.54;98.35
16544;BME280;8384;47.996;7.786;2022-11-20T07:34:45;98487.94;;;5.30;99.46
16544;BME280;8384;47.996;7.786;2022-11-20T07:37:10;98489.00;;;5.29;98.97
16544;BME280;8384;47.996;7.786;2022-11-20T07:39:35;98504.66;;;5.39;99.27
16544;BME280;8384;47.996;7.786;2022-11-20T07:42:00;98488.25;;;5.22;99.20
16544;BME280;8384;47.996;7.786;2022-11-20T07:44:26;98507.06;;;5.47;98.74
16544;BME280;8384;47.996;7.786;2022-11-20T07:46:51;98473.28;;;5.07;99.70
16544;BME280;8384;47.996;7.786;2022-11-20T07:49:16;98511.16;;;5.38;100.00
16544;BME280;8384;47.996;7.786;2022-11-20T07:51:41;98523.53;;;5.46;100.00
16544;BME280;8384;47.996;7.786;2022-11-20T07:54:07;98501.34;;;5.25;100.00
16544;BME280;8384;47.996;7.786;2022-11-20T07:56:32;98536.78;;;5.12;100.00
16544;BME280;8384;47.996;7.786;2022-11-20T07:58:57;98519.03;;;5.28;100.00
16544;BME280;8384;47.996;7.786;2022-11-20T08:01:23;98531.03;;;5.32;100.00
16544;BME280;8384;47.996;7.786;2022-11-20T08:03:48;98508.25;;;5.09;100.00
16544;BME280;8384;47.996;7.786;2022-11-20T08:06:13;98530.34;;;5.24;100.00
16544;BME280;8384;47.996;7.786;2022-11-20T08:08:39;98539.09;;;5.38;100.00
16544;BME280;8384;47.996;7.786;2022-11-20T08:11:05;98531.75;;;5.27;100.00
16544;BME280;8384;47.996;7.786;2022-11-20T08:13:49;98523.50;;;5.22;100.00
16544;BME280;8384;47.996;7.786;2022-11-20T08:16:33;98522.53;;;5.16;100.00
16544;BME280;8384;47.996;7.786;2022-11-20T08:18:58;98517.38;;;5.27;100.00
16544;BME280;8384;47.996;7.786;2022-11-20T08:21:24;98534.34;;;5.34;100.00
16544;BME280;8384;47.996;7.786;2022-11-20T08:23:49;98522.13;;;5.43;100.00
16544;BME280;8384;47.996;7.786;2022-11-20T08:26:14;98527.88;;;5.35;100.00
16544;BME280;8384;47.996;7.786;2022-11-20T08:28:40;98523.97;;;5.31;100.00
16544;BME280;8384;47.996;7.786;2022-11-20T08:31:05;98558.44;;;5.54;100.00
16544;BME280;8384;47.996;7.786;2022-11-20T08:33:31;98545.34;;;5.39;100.00
16544;BME280;8384;47.996;7.786;2022-11-20T08:36:01;98513.06;;;5.37;100.00
16544;BME280;8384;47.996;7.786;2022-11-20T08:38:27;98539.81;;;5.58;99.55
16544;BME280;8384;47.996;7.786;2022-11-20T08:40:56;98539.94;;;5.51;99.22
16544;BME280;8384;47.996;7.786;2022-11-20T08:43:40;98547.88;;;5.64;98.41
16544;BME280;8384;47.996;7.786;2022-11-20T08:46:05;98571.22;;;5.65;98.05
16544;BME280;8384;47.996;7.786;2022-11-20T08:48:30;98532.25;;;5.48;98.64
16544;BME280;8384;47.996;7.786;2022-11-20T08:50:58;98550.22;;;5.73;98.39
16544;BME280;8384;47.996;7.786;2022-11-20T08:53:23;98513.41;;;5.41;97.47
16544;BME280;8384;47.996;7.786;2022-11-20T08:55:48;98542.66;;;5.63;98.15
16544;BME280;8384;47.996;7.786;2022-11-20T08:58:14;98547.94;;;5.58;98.37
16544;BME280;8384;47.996;7.786;2022-11-20T09:00:39;98555.03;;;5.59;98.07
16544;BME280;8384;47.996;7.786;2022-11-20T09:03:04;98550.09;;;5.55;98.55
16544;BME280;8384;47.996;7.786;2022-11-20T09:05:29;98574.41;;;5.74;98.58
16544;BME280;8384;47.996;7.786;2022-11-20T09:07:59;98513.66;;;5.39;98.23
16544;BME280;8384;47.996;7.786;2022-11-20T09:10:25;98532.53;;;5.58;97.53
16544;BME280;8384;47.996;7.786;2022-11-20T09:12:51;98562.00;;;5.66;97.29
16544;BME280;8384;47.996;7.786;2022-11-20T09:15:17;98541.09;;;5.43;97.69
16544;BME280;8384;47.996;7.786;2022-11-20T09:17:53;98587.72;;;5.88;97.45
16544;BME280;8384;47.996;7.786;2022-11-20T09:20:18;98545.97;;;5.65;97.61
16544;BME280;8384;47.996;7.786;2022-11-20T09:22:44;98545.81;;;5.48;98.08
16544;BME280;8384;47.996;7.786;2022-11-20T09:25:09;98522.47;;;5.47;97.52
16544;BME280;8384;47.996;7.786;2022-11-20T09:27:35;98587.97;;;5.86;96.79
16544;BME280;8384;47.996;7.786;2022-11-20T09:30:01;98540.41;;;5.60;96.94
16544;BME280;8384;47.996;7.786;2022-11-20T09:32:26;98579.72;;;5.93;96.08
16544;BME280;8384;47.996;7.786;2022-11-20T09:34:51;98531.56;;;5.52;97.33
16544;BME280;8384;47.996;7.786;2022-11-20T09:37:16;98555.16;;;5.76;96.47
16544;BME280;8384;47.996;7.786;2022-11-20T09:39:42;98553.94;;;6.02;95.48
16544;BME280;8384;47.996;7.786;2022-11-20T09:42:17;98594.16;;;6.17;95.48
16544;BME280;8384;47.996;7.786;2022-11-20T09:45:12;98601.34;;;6.35;94.33
16544;BME280;8384;47.996;7.786;2022-11-20T09:56:01;98575.50;;;6.33;93.73
16544;BME280;8384;47.996;7.786;2022-11-20T09:58:39;98605.81;;;6.29;94.36
16544;BME280;8384;47.996;7.786;2022-11-20T10:01:12;98596.16;;;6.34;93.56
16544;BME280;8384;47.996;7.786;2022-11-20T10:03:45;98614.44;;;6.38;94.52
16544;BME280;8384;47.996;7.786;2022-11-20T10:06:17;98605.13;;;6.46;93.93
16544;BME280;8384;47.996;7.786;2022-11-20T10:08:49;98579.16;;;6.26;94.68
16544;BME280;8384;47.996;7.786;2022-11-20T10:14:29;98565.34;;;6.28;93.73
16544;BME280;8384;47.996;7.786;2022-11-20T10:17:20;98606.03;;;6.52;94.90
16544;BME280;8384;47.996;7.786;2022-11-20T10:30:14;98607.34;;;6.49;94.47
16544;BME280;8384;47.996;7.786;2022-11-20T10:32:46;98584.53;;;6.50;94.22
16544;BME280;8384;47.996;7.786;2022-11-20T10:35:26;98549.88;;;6.28;94.40
16544;BME280;8384;47.996;7.786;2022-11-20T10:38:18;98601.88;;;6.73;93.82
16544;BME280;8384;47.996;7.786;2022-11-20T10:40:49;98541.34;;;6.49;92.89
16544;BME280;8384;47.996;7.786;2022-11-20T10:43:27;98591.03;;;7.02;93.18
16544;BME280;8384;47.996;7.786;2022-11-20T10:46:00;98556.78;;;7.01;91.08
16544;BME280;8384;47.996;7.786;2022-11-20T10:48:28;98572.84;;;7.02;91.21
16544;BME280;8384;47.996;7.786;2022-11-20T10:51:07;98577.06;;;7.10;91.48
16544;BME280;8384;47.996;7.786;2022-11-20T10:56:30;98573.75;;;7.08;91.19
16544;BME280;8384;47.996;7.786;2022-11-20T11:02:14;98529.91;;;6.87;90.76
16544;BME280;8384;47.996;7.786;2022-11-20T11:04:43;98561.91;;;7.14;90.28
16544;BME280;8384;47.996;7.786;2022-11-20T11:07:15;98557.97;;;7.22;89.85
16544;BME280;8384;47.996;7.786;2022-11-20T11:09:46;98539.81;;;6.94;88.47
16544;BME280;8384;47.996;7.786;2022-11-20T11:12:12;98527.72;;;7.01;90.07
16544;BME280;8384;47.996;7.786;2022-11-20T11:14:57;98530.72;;;7.34;87.59
16544;BME280;8384;47.996;7.786;2022-11-20T11:17:33;98528.19;;;7.44;86.78
16544;BME280;8384;47.996;7.786;2022-11-20T11:20:17;98527.94;;;7.63;85.88
16544;BME280;8384;47.996;7.786;2022-11-20T11:22:49;98518.78;;;8.25;83.92
16544;BME280;8384;47.996;7.786;2022-11-20T11:25:26;98515.97;;;8.60;79.85
16544;BME280;8384;47.996;7.786;2022-11-20T11:27:53;98510.47;;;8.77;77.98
16544;BME280;8384;47.996;7.786;2022-11-20T11:30:21;98476.78;;;8.21;79.24
16544;BME280;8384;47.996;7.786;2022-11-20T11:32:47;98504.44;;;8.52;77.45
16544;BME280;8384;47.996;7.786;2022-11-20T11:35:22;98485.91;;;8.99;76.34
16544;BME280;8384;47.996;7.786;2022-11-20T11:37:48;98504.25;;;9.09;74.78
16544;BME280;8384;47.996;7.786;2022-11-20T11:40:15;98504.34;;;8.92;75.56
16544;BME280;8384;47.996;7.786;2022-11-20T11:42:48;98485.53;;;8.90;75.14
16544;BME280;8384;47.996;7.786;2022-11-20T11:45:16;98471.88;;;8.85;73.50
16544;BME280;8384;47.996;7.786;2022-11-20T11:47:47;98465.16;;;8.48;75.13
16544;BME280;8384;47.996;7.786;2022-11-20T11:50:28;98473.84;;;8.23;74.43
16544;BME280;8384;47.996;7.786;2022-11-20T11:55:27;98459.56;;;8.55;74.01
16544;BME280;8384;47.996;7.786;2022-11-20T11:57:59;98467.00;;;8.43;73.82
16544;BME280;8384;47.996;7.786;2022-11-20T12:00:29;98425.56;;;7.96;73.68
16544;BME280;8384;47.996;7.786;2022-11-20T12:03:14;98461.78;;;8.19;74.25
16544;BME280;8384;47.996;7.786;2022-11-20T12:05:55;98428.63;;;8.22;73.64
16544;BME280;8384;47.996;7.786;2022-11-20T12:11:14;98395.25;;;8.09;69.80
16544;BME280;8384;47.996;7.786;2022-11-20T12:13:47;98455.59;;;8.23;69.45
16544;BME280;8384;47.996;7.786;2022-11-20T12:16:18;98455.16;;;8.32;69.74
16544;BME280;8384;47.996;7.786;2022-11-20T12:18:47;98450.78;;;8.31;69.79
16544;BME280;8384;47.996;7.786;2022-11-20T12:29:18;98460.72;;;8.64;68.53
16544;BME280;8384;47.996;7.786;2022-11-20T12:31:52;98469.84;;;9.03;67.32
16544;BME280;8384;47.996;7.786;2022-11-20T12:37:07;98448.94;;;8.36;69.17
16544;BME280;8384;47.996;7.786;2022-11-20T12:39:48;98446.25;;;8.86;67.73
16544;BME280;8384;47.996;7.786;2022-11-20T12:45:50;98470.81;;;8.19;70.80
16544;BME280;8384;47.996;7.786;2022-11-20T13:00:14;98443.31;;;7.81;74.13
16544;BME280;8384;47.996;7.786;2022-11-20T13:06:03;98455.84;;;8.22;74.63
16544;BME280;8384;47.996;7.786;2022-11-20T13:08:35;98443.19;;;8.55;72.91
16544;BME280;8384;47.996;7.786;2022-11-20T13:11:09;98453.38;;;8.92;71.92
16544;BME280;8384;47.996;7.786;2022-11-20T13:14:00;98443.72;;;8.52;71.39
16544;BME280;8384;47.996;7.786;2022-11-20T13:16:45;98391.22;;;8.12;70.99
16544;BME280;8384;47.996;7.786;2022-11-20T13:19:16;98430.00;;;8.47;70.65
16544;BME280;8384;47.996;7.786;2022-11-20T13:21:48;98407.91;;;8.21;70.30
16544;BME280;8384;47.996;7.786;2022-11-20T13:24:26;98411.28;;;8.28;68.46
16544;BME280;8384;47.996;7.786;2022-11-20T13:29:31;98392.38;;;8.98;66.42
16544;BME280;8384;47.996;7.786;2022-11-20T13:32:13;98418.75;;;8.60;68.43
16544;BME280;8384;47.996;7.786;2022-11-20T13:34:54;98400.44;;;8.83;67.50
16544;BME280;8384;47.996;7.786;2022-11-20T13:42:56;98415.19;;;8.87;66.86
16544;BME280;8384;47.996;7.786;2022-11-20T13:45:30;98389.88;;;8.92;65.76
16544;BME280;8384;47.996;7.786;2022-11-20T13:47:57;98397.44;;;9.17;64.59
16544;BME280;8384;47.996;7.786;2022-11-20T13:50:39;98400.22;;;9.65;63.29
16544;BME280;8384;47.996;7.786;2022-11-20T13:53:22;98420.09;;;9.18;64.42
16544;BME280;8384;47.996;7.786;2022-11-20T13:58:30;98380.91;;;8.64;66.52
16544;BME280;8384;47.996;7.786;2022-11-20T14:01:09;98391.84;;;8.69;67.23
16544;BME280;8384;47.996;7.786;2022-11-20T14:03:35;98389.38;;;8.67;68.25
16544;BME280;8384;47.996;7.786;2022-11-20T14:06:03;98403.91;;;8.29;70.41
16544;BME280;8384;47.996;7.786;2022-11-20T14:08:42;98390.38;;;8.11;70.35
16544;BME280;8384;47.996;7.786;2022-11-20T14:11:18;98383.47;;;8.04;70.82
16544;BME280;8384;47.996;7.786;2022-11-20T14:13:56;98383.16;;;8.22;70.24
16544;BME280;8384;47.996;7.786;2022-11-20T14:16:23;98360.38;;;7.84;71.37
16544;BME280;8384;47.996;7.786;2022-11-20T14:18:49;98353.50;;;7.76;71.72
16544;BME280;8384;47.996;7.786;2022-11-20T14:21:25;98377.22;;;7.81;73.19
16544;BME280;8384;47.996;7.786;2022-11-20T14:24:18;98375.06;;;7.83;72.94
16544;BME280;8384;47.996;7.786;2022-11-20T14:26:45;98341.06;;;7.86;72.06
16544;BME280;8384;47.996;7.786;2022-11-20T14:29:21;98370.31;;;7.73;74.19
16544;BME280;8384;47.996;7.786;2022-11-20T14:31:48;98342.47;;;7.88;72.70
16544;BME280;8384;47.996;7.786;2022-11-20T14:34:27;98339.06;;;7.76;73.98
16544;BME280;8384;47.996;7.786;2022-11-20T14:37:18;98343.50;;;7.82;73.03
16544;BME280;8384;47.996;7.786;2022-11-20T14:39:50;98313.13;;;7.68;71.73
16544;BME280;8384;47.996;7.786;2022-11-20T14:42:22;98290.47;;;7.40;71.78
16544;BME280;8384;47.996;7.786;2022-11-20T14:44:49;98302.72;;;7.43;73.42